sensor_id;sensor_type;location;lat;lon;timestamp;P1;durP1;ratioP1;P2;durP2;ratioP2
16963;SDS011;8598;50.508;10.436;2022-10-01T00:02:19;7.73;;;5.73;;
16963;SDS011;8598;50.508;10.436;2022-10-01T00:04:46;8.37;;;6.10;;
16963;SDS011;8598;50.508;10.436;2022-10-01T00:07:14;7.30;;;5.80;;
16963;SDS011;8598;50.508;10.436;2022-10-01T00:09:42;7.77;;;6.00;;
16963;SDS011;8598;50.508;10.436;2022-10-01T00:12:09;11.73;;;6.83;;
16963;SDS011;8598;50.508;10.436;2022-10-01T00:14:39;6.63;;;5.83;;
16963;SDS011;8598;50.508;10.436;2022-10-01T00:17:06;8.60;;;5.70;;
16963;SDS011;8598;50.508;10.436;2022-10-01T00:19:33;10.03;;;6.37;;
16963;SDS011;8598;50.508;10.436;2022-10-01T00:22:00;6.87;;;5.50;;
16963;SDS011;8598;50.508;10.436;2022-10-01T00:24:26;10.60;;;5.63;;
16963;SDS011;8598;50.508;10.436;2022-10-01T00:26:54;7.50;;;5.10;;
16963;SDS011;8598;50.508;10.436;2022-10-01T00:29:21;6.97;;;5.63;;
16963;SDS011;8598;50.508;10.436;2022-10-01T00:31:48;6.03;;;5.43;;
16963;SDS011;8598;50.508;10.436;2022-10-01T00:34:15;9.37;;;5.50;;
16963;SDS011;8598;50.508;10.436;2022-10-01T00:36:41;7.80;;;5.80;;
16963;SDS011;8598;50.508;10.436;2022-10-01T00:39:09;6.97;;;5.80;;
16963;SDS011;8598;50.508;10.436;2022-10-01T00:41:36;6.57;;;5.33;;
16963;SDS011;8598;50.508;10.436;2022-10-01T00:46:58;5.73;;;5.00;;
16963;SDS011;8598;50.508;10.436;2022-10-01T00:49:30;9.30;;;6.40;;
16963;SDS011;8598;50.508;10.436;2022-10-01T00:52:01;7.20;;;5.67;;
16963;SDS011;8598;50.508;10.436;2022-10-01T00:54:31;6.83;;;5.50;;
16963;SDS011;8598;50.508;10.436;2022-10-01T00:57:05;7.83;;;5.23;;
16963;SDS011;8598;50.508;10.436;2022-10-01T00:59:34;6.47;;;5.73;;
16963;SDS011;8598;50.508;10.436;2022-10-01T01:02:01;6.97;;;5.90;;
16963;SDS011;8598;50.508;10.436;2022-10-01T01:04:28;7.60;;;5.53;;
16963;SDS011;8598;50.508;10.436;2022-10-01T01:06:56;10.13;;;5.83;;
16963;SDS011;8598;50.508;10.436;2022-10-01T01:09:25;7.93;;;5.70;;
16963;SDS011;8598;50.508;10.436;2022-10-01T01:11:56;7.07;;;5.13;;
16963;SDS011;8598;50.508;10.436;2022-10-01T01:14:28;9.80;;;5.87;;
16963;SDS011;8598;50.508;10.436;2022-10-01T01:17:07;6.50;;;5.50;;
16963;SDS011;8598;50.508;10.436;2022-10-01T01:19:42;5.73;;;4.60;;
16963;SDS011;8598;50.508;10.436;2022-10-01T01:22:19;6.43;;;5.00;;
16963;SDS011;8598;50.508;10.436;2022-10-01T01:24:50;8.77;;;5.50;;
16963;SDS011;8598;50.508;10.436;2022-10-01T01:27:25;7.73;;;5.47;;
16963;SDS011;8598;50.508;10.436;2022-10-01T01:29:57;7.17;;;5.93;;
16963;SDS011;8598;50.508;10.436;2022-10-01T01:32:29;7.50;;;5.13;;
16963;SDS011;8598;50.508;10.436;2022-10-01T01:35:02;5.03;;;4.53;;
16963;SDS011;8598;50.508;10.436;2022-10-01T01:37:32;7.53;;;5.20;;
16963;SDS011;8598;50.508;10.436;2022-10-01T01:40:04;6.57;;;5.27;;
16963;SDS011;8598;50.508;10.436;2022-10-01T01:42:35;8.67;;;5.37;;
16963;SDS011;8598;50.508;10.436;2022-10-01T01:45:08;7.40;;;5.47;;
16963;SDS011;8598;50.508;10.436;2022-10-01T01:47:39;5.93;;;5.33;;
16963;SDS011;8598;50.508;10.436;2022-10-01T01:50:08;10.07;;;5.33;;
16963;SDS011;8598;50.508;10.436;2022-10-01T01:52:36;6.77;;;5.40;;
16963;SDS011;8598;50.508;10.436;2022-10-01T01:55:03;7.23;;;6.00;;
16963;SDS011;8598;50.508;10.436;2022-10-01T01:57:32;6.57;;;5.43;;
16963;SDS011;8598;50.508;10.436;2022-10-01T02:00:03;10.70;;;5.70;;
16963;SDS011;8598;50.508;10.436;2022-10-01T02:02:31;13.50;;;5.43;;
16963;SDS011;8598;50.508;10.436;2022-10-01T02:05:00;7.50;;;5.80;;
16963;SDS011;8598;50.508;10.436;2022-10-01T02:07:43;6.90;;;5.00;;
16963;SDS011;8598;50.508;10.436;2022-10-01T02:10:41;7.33;;;5.10;;
16963;SDS011;8598;50.508;10.436;2022-10-01T02:13:24;5.70;;;5.10;;
16963;SDS011;8598;50.508;10.436;2022-10-01T02:16:03;6.83;;;4.97;;
16963;SDS011;8598;50.508;10.436;2022-10-01T02:18:45;6.20;;;5.07;;
16963;SDS011;8598;50.508;10.436;2022-10-01T02:21:18;8.83;;;5.80;;
16963;SDS011;8598;50.508;10.436;2022-10-01T02:23:49;11.07;;;6.73;;
16963;SDS011;8598;50.508;10.436;2022-10-01T02:26:20;6.63;;;5.50;;
16963;SDS011;8598;50.508;10.436;2022-10-01T02:28:50;8.33;;;5.40;;
16963;SDS011;8598;50.508;10.436;2022-10-01T02:31:20;7.73;;;5.93;;
16963;SDS011;8598;50.508;10.436;2022-10-01T02:33:49;6.40;;;5.03;;
16963;SDS011;8598;50.508;10.436;2022-10-01T02:36:18;5.17;;;4.67;;
16963;SDS011;8598;50.508;10.436;2022-10-01T02:38:46;6.17;;;5.17;;
16963;SDS011;8598;50.508;10.436;2022-10-01T02:41:15;7.70;;;6.30;;
16963;SDS011;8598;50.508;10.436;2022-10-01T02:43:48;6.23;;;5.00;;
16963;SDS011;8598;50.508;10.436;2022-10-01T02:46:21;6.33;;;5.03;;
16963;SDS011;8598;50.508;10.436;2022-10-01T02:48:54;9.20;;;6.77;;
16963;SDS011;8598;50.508;10.436;2022-10-01T02:51:27;11.53;;;7.90;;
16963;SDS011;8598;50.508;10.436;2022-10-01T02:54:00;14.00;;;8.83;;
16963;SDS011;8598;50.508;10.436;2022-10-01T02:56:30;10.10;;;7.83;;
16963;SDS011;8598;50.508;10.436;2022-10-01T02:59:15;8.30;;;6.60;;
16963;SDS011;8598;50.508;10.436;2022-10-01T03:01:42;8.00;;;5.60;;
16963;SDS011;8598;50.508;10.436;2022-10-01T03:04:10;9.63;;;6.80;;
16963;SDS011;8598;50.508;10.436;2022-10-01T03:06:37;9.50;;;6.13;;
16963;SDS011;8598;50.508;10.436;2022-10-01T03:09:04;9.63;;;6.23;;
16963;SDS011;8598;50.508;10.436;2022-10-01T03:11:32;8.83;;;6.33;;
16963;SDS011;8598;50.508;10.436;2022-10-01T03:13:59;9.23;;;6.70;;
16963;SDS011;8598;50.508;10.436;2022-10-01T03:16:28;10.33;;;6.93;;
16963;SDS011;8598;50.508;10.436;2022-10-01T03:18:55;11.30;;;8.40;;
16963;SDS011;8598;50.508;10.436;2022-10-01T03:21:23;12.47;;;8.20;;
16963;SDS011;8598;50.508;10.436;2022-10-01T03:23:49;13.67;;;9.60;;
16963;SDS011;8598;50.508;10.436;2022-10-01T03:26:16;13.60;;;9.77;;
16963;SDS011;8598;50.508;10.436;2022-10-01T03:28:43;17.57;;;10.57;;
16963;SDS011;8598;50.508;10.436;2022-10-01T03:31:10;18.60;;;11.43;;
16963;SDS011;8598;50.508;10.436;2022-10-01T03:33:36;18.27;;;11.83;;
16963;SDS011;8598;50.508;10.436;2022-10-01T03:36:03;12.20;;;8.80;;
16963;SDS011;8598;50.508;10.436;2022-10-01T03:38:31;10.97;;;7.80;;
16963;SDS011;8598;50.508;10.436;2022-10-01T03:40:58;14.83;;;7.97;;
16963;SDS011;8598;50.508;10.436;2022-10-01T03:43:25;15.73;;;7.50;;
16963;SDS011;8598;50.508;10.436;2022-10-01T03:45:53;11.00;;;8.70;;
16963;SDS011;8598;50.508;10.436;2022-10-01T03:48:20;10.20;;;7.43;;
16963;SDS011;8598;50.508;10.436;2022-10-01T03:50:53;10.67;;;7.60;;
16963;SDS011;8598;50.508;10.436;2022-10-01T03:53:21;10.33;;;7.50;;
16963;SDS011;8598;50.508;10.436;2022-10-01T03:55:50;17.37;;;10.03;;
16963;SDS011;8598;50.508;10.436;2022-10-01T03:58:17;12.07;;;9.30;;
16963;SDS011;8598;50.508;10.436;2022-10-01T04:00:44;23.87;;;13.53;;
16963;SDS011;8598;50.508;10.436;2022-10-01T04:03:12;33.10;;;19.33;;
16963;SDS011;8598;50.508;10.436;2022-10-01T04:05:40;45.53;;;23.20;;
16963;SDS011;8598;50.508;10.436;2022-10-01T04:08:07;43.93;;;23.27;;
16963;SDS011;8598;50.508;10.436;2022-10-01T04:10:34;44.23;;;23.17;;
16963;SDS011;8598;50.508;10.436;2022-10-01T04:13:02;45.77;;;24.43;;
16963;SDS011;8598;50.508;10.436;2022-10-01T04:15:29;46.97;;;25.07;;
16963;SDS011;8598;50.508;10.436;2022-10-01T04:17:56;44.93;;;24.33;;
16963;SDS011;8598;50.508;10.436;2022-10-01T04:20:23;46.17;;;24.80;;
16963;SDS011;8598;50.508;10.436;2022-10-01T04:22:50;46.37;;;25.80;;
16963;SDS011;8598;50.508;10.436;2022-10-01T04:25:17;47.63;;;25.53;;
16963;SDS011;8598;50.508;10.436;2022-10-01T04:27:52;46.17;;;24.93;;
16963;SDS011;8598;50.508;10.436;2022-10-01T04:30:22;48.83;;;25.87;;
16963;SDS011;8598;50.508;10.436;2022-10-01T04:32:49;48.03;;;26.10;;
16963;SDS011;8598;50.508;10.436;2022-10-01T04:35:16;46.57;;;24.50;;
16963;SDS011;8598;50.508;10.436;2022-10-01T04:37:43;47.27;;;25.63;;
16963;SDS011;8598;50.508;10.436;2022-10-01T04:40:10;45.37;;;24.17;;
16963;SDS011;8598;50.508;10.436;2022-10-01T04:42:37;42.03;;;23.40;;
16963;SDS011;8598;50.508;10.436;2022-10-01T04:45:06;42.30;;;24.23;;
16963;SDS011;8598;50.508;10.436;2022-10-01T04:47:35;43.63;;;23.77;;
16963;SDS011;8598;50.508;10.436;2022-10-01T04:50:02;46.70;;;23.07;;
16963;SDS011;8598;50.508;10.436;2022-10-01T04:52:29;39.90;;;21.90;;
16963;SDS011;8598;50.508;10.436;2022-10-01T04:54:56;41.60;;;23.67;;
16963;SDS011;8598;50.508;10.436;2022-10-01T04:57:23;43.00;;;22.33;;
16963;SDS011;8598;50.508;10.436;2022-10-01T04:59:49;38.97;;;22.57;;
16963;SDS011;8598;50.508;10.436;2022-10-01T05:02:16;41.57;;;22.53;;
16963;SDS011;8598;50.508;10.436;2022-10-01T05:04:44;37.17;;;20.67;;
16963;SDS011;8598;50.508;10.436;2022-10-01T05:07:11;36.53;;;20.00;;
16963;SDS011;8598;50.508;10.436;2022-10-01T05:09:38;39.47;;;19.90;;
16963;SDS011;8598;50.508;10.436;2022-10-01T05:12:05;34.83;;;19.70;;
16963;SDS011;8598;50.508;10.436;2022-10-01T05:14:32;33.97;;;18.50;;
16963;SDS011;8598;50.508;10.436;2022-10-01T05:16:59;32.40;;;19.47;;
16963;SDS011;8598;50.508;10.436;2022-10-01T05:19:26;32.60;;;18.50;;
16963;SDS011;8598;50.508;10.436;2022-10-01T05:21:54;28.70;;;17.67;;
16963;SDS011;8598;50.508;10.436;2022-10-01T05:24:21;27.70;;;17.23;;
16963;SDS011;8598;50.508;10.436;2022-10-01T05:26:48;28.20;;;16.53;;
16963;SDS011;8598;50.508;10.436;2022-10-01T05:29:15;28.17;;;16.70;;
16963;SDS011;8598;50.508;10.436;2022-10-01T05:31:42;29.37;;;16.80;;
16963;SDS011;8598;50.508;10.436;2022-10-01T05:34:09;27.23;;;16.37;;
16963;SDS011;8598;50.508;10.436;2022-10-01T05:36:36;26.70;;;16.10;;
16963;SDS011;8598;50.508;10.436;2022-10-01T05:39:04;26.47;;;16.60;;
16963;SDS011;8598;50.508;10.436;2022-10-01T05:41:31;26.87;;;16.97;;
16963;SDS011;8598;50.508;10.436;2022-10-01T05:43:58;29.43;;;16.13;;
16963;SDS011;8598;50.508;10.436;2022-10-01T05:46:25;23.30;;;14.07;;
16963;SDS011;8598;50.508;10.436;2022-10-01T05:48:51;25.30;;;15.30;;
16963;SDS011;8598;50.508;10.436;2022-10-01T05:51:18;25.03;;;16.37;;
16963;SDS011;8598;50.508;10.436;2022-10-01T05:53:45;25.57;;;15.60;;
16963;SDS011;8598;50.508;10.436;2022-10-01T05:56:15;24.33;;;16.50;;
16963;SDS011;8598;50.508;10.436;2022-10-01T05:58:41;18.93;;;12.90;;
16963;SDS011;8598;50.508;10.436;2022-10-01T06:01:08;23.70;;;14.77;;
16963;SDS011;8598;50.508;10.436;2022-10-01T06:03:35;25.70;;;15.53;;
16963;SDS011;8598;50.508;10.436;2022-10-01T06:06:02;24.47;;;15.13;;
16963;SDS011;8598;50.508;10.436;2022-10-01T06:08:29;23.30;;;14.27;;
16963;SDS011;8598;50.508;10.436;2022-10-01T06:11:00;24.00;;;14.37;;
16963;SDS011;8598;50.508;10.436;2022-10-01T06:13:28;23.30;;;14.27;;
16963;SDS011;8598;50.508;10.436;2022-10-01T06:15:56;23.90;;;13.93;;
16963;SDS011;8598;50.508;10.436;2022-10-01T06:18:23;24.43;;;13.77;;
16963;SDS011;8598;50.508;10.436;2022-10-01T06:20:51;20.83;;;13.60;;
16963;SDS011;8598;50.508;10.436;2022-10-01T06:23:18;26.17;;;14.40;;
16963;SDS011;8598;50.508;10.436;2022-10-01T06:25:44;17.13;;;12.67;;
16963;SDS011;8598;50.508;10.436;2022-10-01T06:28:11;17.10;;;12.67;;
16963;SDS011;8598;50.508;10.436;2022-10-01T06:30:40;19.40;;;12.23;;
16963;SDS011;8598;50.508;10.436;2022-10-01T06:33:08;21.03;;;12.90;;
16963;SDS011;8598;50.508;10.436;2022-10-01T06:35:38;20.93;;;12.47;;
16963;SDS011;8598;50.508;10.436;2022-10-01T06:38:06;16.40;;;10.97;;
16963;SDS011;8598;50.508;10.436;2022-10-01T06:40:33;24.57;;;12.03;;
16963;SDS011;8598;50.508;10.436;2022-10-01T06:43:01;19.63;;;12.90;;
16963;SDS011;8598;50.508;10.436;2022-10-01T06:45:29;19.27;;;12.20;;
16963;SDS011;8598;50.508;10.436;2022-10-01T06:47:58;18.97;;;11.80;;
16963;SDS011;8598;50.508;10.436;2022-10-01T06:50:27;17.30;;;11.57;;
16963;SDS011;8598;50.508;10.436;2022-10-01T06:52:54;13.60;;;10.23;;
16963;SDS011;8598;50.508;10.436;2022-10-01T06:55:23;13.97;;;10.00;;
16963;SDS011;8598;50.508;10.436;2022-10-01T06:57:52;16.50;;;9.57;;
16963;SDS011;8598;50.508;10.436;2022-10-01T07:00:20;14.77;;;10.83;;
16963;SDS011;8598;50.508;10.436;2022-10-01T07:02:47;17.53;;;9.97;;
16963;SDS011;8598;50.508;10.436;2022-10-01T07:05:16;12.63;;;8.83;;
16963;SDS011;8598;50.508;10.436;2022-10-01T07:07:43;19.23;;;10.60;;
16963;SDS011;8598;50.508;10.436;2022-10-01T07:10:10;14.70;;;9.70;;
16963;SDS011;8598;50.508;10.436;2022-10-01T07:12:37;15.70;;;10.27;;
16963;SDS011;8598;50.508;10.436;2022-10-01T07:15:04;13.70;;;9.73;;
16963;SDS011;8598;50.508;10.436;2022-10-01T07:17:32;13.90;;;9.53;;
16963;SDS011;8598;50.508;10.436;2022-10-01T07:20:00;12.03;;;8.80;;
16963;SDS011;8598;50.508;10.436;2022-10-01T07:22:28;16.13;;;10.13;;
16963;SDS011;8598;50.508;10.436;2022-10-01T07:24:55;13.37;;;9.57;;
16963;SDS011;8598;50.508;10.436;2022-10-01T07:27:21;11.87;;;8.43;;
16963;SDS011;8598;50.508;10.436;2022-10-01T07:29:48;11.70;;;8.40;;
16963;SDS011;8598;50.508;10.436;2022-10-01T07:32:15;12.20;;;8.50;;
16963;SDS011;8598;50.508;10.436;2022-10-01T07:34:42;23.80;;;17.70;;
16963;SDS011;8598;50.508;10.436;2022-10-01T07:37:09;13.40;;;8.80;;
16963;SDS011;8598;50.508;10.436;2022-10-01T07:39:37;12.07;;;9.87;;
16963;SDS011;8598;50.508;10.436;2022-10-01T07:42:04;12.73;;;9.13;;
16963;SDS011;8598;50.508;10.436;2022-10-01T07:44:30;16.20;;;10.20;;
16963;SDS011;8598;50.508;10.436;2022-10-01T07:46:58;15.70;;;13.37;;
16963;SDS011;8598;50.508;10.436;2022-10-01T07:49:25;12.40;;;10.93;;
16963;SDS011;8598;50.508;10.436;2022-10-01T07:51:52;12.97;;;8.10;;
16963;SDS011;8598;50.508;10.436;2022-10-01T07:54:19;14.23;;;10.37;;
16963;SDS011;8598;50.508;10.436;2022-10-01T07:56:48;14.03;;;8.97;;
16963;SDS011;8598;50.508;10.436;2022-10-01T07:59:19;11.27;;;8.23;;
16963;SDS011;8598;50.508;10.436;2022-10-01T08:01:46;17.73;;;12.20;;
16963;SDS011;8598;50.508;10.436;2022-10-01T08:04:15;11.50;;;8.93;;
16963;SDS011;8598;50.508;10.436;2022-10-01T08:06:59;19.57;;;12.53;;
16963;SDS011;8598;50.508;10.436;2022-10-01T08:09:26;31.93;;;18.73;;
16963;SDS011;8598;50.508;10.436;2022-10-01T08:11:54;17.60;;;13.10;;
16963;SDS011;8598;50.508;10.436;2022-10-01T08:14:21;15.70;;;11.23;;
16963;SDS011;8598;50.508;10.436;2022-10-01T08:16:49;13.67;;;9.80;;
16963;SDS011;8598;50.508;10.436;2022-10-01T08:19:16;10.57;;;8.40;;
16963;SDS011;8598;50.508;10.436;2022-10-01T08:21:43;12.70;;;7.70;;
16963;SDS011;8598;50.508;10.436;2022-10-01T08:24:10;9.53;;;7.77;;
16963;SDS011;8598;50.508;10.436;2022-10-01T08:26:37;13.30;;;8.33;;
16963;SDS011;8598;50.508;10.436;2022-10-01T08:29:05;12.63;;;8.07;;
16963;SDS011;8598;50.508;10.436;2022-10-01T08:31:31;10.00;;;7.53;;
16963;SDS011;8598;50.508;10.436;2022-10-01T08:33:59;9.47;;;7.87;;
16963;SDS011;8598;50.508;10.436;2022-10-01T08:36:25;11.33;;;7.47;;
16963;SDS011;8598;50.508;10.436;2022-10-01T08:38:52;8.57;;;7.10;;
16963;SDS011;8598;50.508;10.436;2022-10-01T08:41:22;31.37;;;18.60;;
16963;SDS011;8598;50.508;10.436;2022-10-01T08:43:59;11.17;;;8.20;;
16963;SDS011;8598;50.508;10.436;2022-10-01T08:46:29;10.63;;;7.10;;
16963;SDS011;8598;50.508;10.436;2022-10-01T08:49:00;8.43;;;5.53;;
16963;SDS011;8598;50.508;10.436;2022-10-01T08:51:33;6.90;;;6.17;;
16963;SDS011;8598;50.508;10.436;2022-10-01T08:54:07;6.87;;;5.90;;
16963;SDS011;8598;50.508;10.436;2022-10-01T08:56:41;9.27;;;6.47;;
16963;SDS011;8598;50.508;10.436;2022-10-01T08:59:12;7.87;;;6.53;;
16963;SDS011;8598;50.508;10.436;2022-10-01T09:01:54;6.07;;;5.23;;
16963;SDS011;8598;50.508;10.436;2022-10-01T09:04:21;6.73;;;4.40;;
16963;SDS011;8598;50.508;10.436;2022-10-01T09:06:49;4.63;;;4.17;;
16963;SDS011;8598;50.508;10.436;2022-10-01T09:09:28;7.47;;;4.97;;
16963;SDS011;8598;50.508;10.436;2022-10-01T09:12:10;7.43;;;4.53;;
16963;SDS011;8598;50.508;10.436;2022-10-01T09:17:45;5.70;;;4.70;;
16963;SDS011;8598;50.508;10.436;2022-10-01T09:20:23;8.30;;;5.10;;
16963;SDS011;8598;50.508;10.436;2022-10-01T09:22:54;6.23;;;5.47;;
16963;SDS011;8598;50.508;10.436;2022-10-01T09:25:30;8.33;;;4.90;;
16963;SDS011;8598;50.508;10.436;2022-10-01T09:28:00;7.53;;;5.70;;
16963;SDS011;8598;50.508;10.436;2022-10-01T09:30:36;5.63;;;4.80;;
16963;SDS011;8598;50.508;10.436;2022-10-01T09:33:10;5.20;;;4.30;;
16963;SDS011;8598;50.508;10.436;2022-10-01T09:35:41;4.90;;;3.77;;
16963;SDS011;8598;50.508;10.436;2022-10-01T09:38:12;9.37;;;4.30;;
16963;SDS011;8598;50.508;10.436;2022-10-01T09:40:45;5.43;;;4.93;;
16963;SDS011;8598;50.508;10.436;2022-10-01T09:43:20;15.70;;;7.73;;
16963;SDS011;8598;50.508;10.436;2022-10-01T09:45:47;8.80;;;5.70;;
16963;SDS011;8598;50.508;10.436;2022-10-01T09:48:18;8.53;;;5.63;;
16963;SDS011;8598;50.508;10.436;2022-10-01T09:50:52;5.37;;;4.53;;
16963;SDS011;8598;50.508;10.436;2022-10-01T09:53:24;8.17;;;6.20;;
16963;SDS011;8598;50.508;10.436;2022-10-01T09:55:57;9.17;;;6.73;;
16963;SDS011;8598;50.508;10.436;2022-10-01T09:58:28;6.10;;;4.70;;
16963;SDS011;8598;50.508;10.436;2022-10-01T10:00:56;6.00;;;5.33;;
16963;SDS011;8598;50.508;10.436;2022-10-01T10:03:25;6.97;;;4.63;;
16963;SDS011;8598;50.508;10.436;2022-10-01T10:05:54;5.83;;;4.87;;
16963;SDS011;8598;50.508;10.436;2022-10-01T10:08:25;6.23;;;4.63;;
16963;SDS011;8598;50.508;10.436;2022-10-01T10:10:55;5.73;;;4.67;;
16963;SDS011;8598;50.508;10.436;2022-10-01T10:13:26;12.93;;;7.20;;
16963;SDS011;8598;50.508;10.436;2022-10-01T10:15:59;7.43;;;5.40;;
16963;SDS011;8598;50.508;10.436;2022-10-01T10:18:36;11.27;;;6.77;;
16963;SDS011;8598;50.508;10.436;2022-10-01T10:21:05;9.33;;;7.17;;
16963;SDS011;8598;50.508;10.436;2022-10-01T10:23:45;9.03;;;6.37;;
16963;SDS011;8598;50.508;10.436;2022-10-01T10:26:16;11.33;;;7.97;;
16963;SDS011;8598;50.508;10.436;2022-10-01T10:28:45;13.63;;;8.10;;
16963;SDS011;8598;50.508;10.436;2022-10-01T10:31:13;8.00;;;7.20;;
16963;SDS011;8598;50.508;10.436;2022-10-01T10:33:48;13.50;;;9.57;;
16963;SDS011;8598;50.508;10.436;2022-10-01T10:36:17;6.10;;;5.37;;
16963;SDS011;8598;50.508;10.436;2022-10-01T10:38:45;11.50;;;8.23;;
16963;SDS011;8598;50.508;10.436;2022-10-01T10:41:15;8.47;;;5.07;;
16963;SDS011;8598;50.508;10.436;2022-10-01T10:43:50;8.73;;;6.73;;
16963;SDS011;8598;50.508;10.436;2022-10-01T10:46:20;5.50;;;4.90;;
16963;SDS011;8598;50.508;10.436;2022-10-01T10:48:55;5.20;;;4.70;;
16963;SDS011;8598;50.508;10.436;2022-10-01T10:51:28;4.63;;;4.07;;
16963;SDS011;8598;50.508;10.436;2022-10-01T10:54:14;5.17;;;4.40;;
16963;SDS011;8598;50.508;10.436;2022-10-01T10:56:49;5.40;;;4.60;;
16963;SDS011;8598;50.508;10.436;2022-10-01T10:59:17;7.07;;;5.33;;
16963;SDS011;8598;50.508;10.436;2022-10-01T11:01:44;5.70;;;4.63;;
16963;SDS011;8598;50.508;10.436;2022-10-01T11:04:18;5.00;;;4.50;;
16963;SDS011;8598;50.508;10.436;2022-10-01T11:06:57;4.53;;;4.13;;
16963;SDS011;8598;50.508;10.436;2022-10-01T11:09:26;3.93;;;3.63;;
16963;SDS011;8598;50.508;10.436;2022-10-01T11:12:04;5.00;;;4.50;;
16963;SDS011;8598;50.508;10.436;2022-10-01T11:14:47;4.10;;;3.40;;
16963;SDS011;8598;50.508;10.436;2022-10-01T11:17:31;3.83;;;3.47;;
16963;SDS011;8598;50.508;10.436;2022-10-01T11:20:35;3.60;;;2.93;;
16963;SDS011;8598;50.508;10.436;2022-10-01T11:23:14;3.47;;;3.17;;
16963;SDS011;8598;50.508;10.436;2022-10-01T11:25:58;4.07;;;3.53;;
16963;SDS011;8598;50.508;10.436;2022-10-01T11:28:39;4.57;;;2.80;;
16963;SDS011;8598;50.508;10.436;2022-10-01T11:31:15;3.50;;;2.90;;
16963;SDS011;8598;50.508;10.436;2022-10-01T11:33:52;3.07;;;2.77;;
16963;SDS011;8598;50.508;10.436;2022-10-01T11:36:31;4.87;;;4.20;;
16963;SDS011;8598;50.508;10.436;2022-10-01T11:39:04;3.67;;;3.37;;
16963;SDS011;8598;50.508;10.436;2022-10-01T11:41:39;5.83;;;4.97;;
16963;SDS011;8598;50.508;10.436;2022-10-01T11:44:11;7.10;;;5.80;;
16963;SDS011;8598;50.508;10.436;2022-10-01T11:46:48;4.60;;;3.70;;
16963;SDS011;8598;50.508;10.436;2022-10-01T11:49:22;5.77;;;4.03;;
16963;SDS011;8598;50.508;10.436;2022-10-01T11:51:57;2.67;;;2.43;;
16963;SDS011;8598;50.508;10.436;2022-10-01T11:54:31;2.83;;;2.60;;
16963;SDS011;8598;50.508;10.436;2022-10-01T11:57:04;2.40;;;2.20;;
16963;SDS011;8598;50.508;10.436;2022-10-01T11:59:58;3.03;;;2.50;;
16963;SDS011;8598;50.508;10.436;2022-10-01T12:02:29;3.80;;;2.87;;
16963;SDS011;8598;50.508;10.436;2022-10-01T12:05:02;2.97;;;2.67;;
16963;SDS011;8598;50.508;10.436;2022-10-01T12:07:34;7.17;;;3.40;;
16963;SDS011;8598;50.508;10.436;2022-10-01T12:10:12;6.87;;;5.13;;
16963;SDS011;8598;50.508;10.436;2022-10-01T12:12:44;9.00;;;5.40;;
16963;SDS011;8598;50.508;10.436;2022-10-01T12:15:17;7.10;;;4.30;;
16963;SDS011;8598;50.508;10.436;2022-10-01T12:17:49;7.80;;;4.40;;
16963;SDS011;8598;50.508;10.436;2022-10-01T12:20:21;7.13;;;4.37;;
16963;SDS011;8598;50.508;10.436;2022-10-01T12:22:53;7.77;;;5.00;;
16963;SDS011;8598;50.508;10.436;2022-10-01T12:25:25;15.20;;;6.27;;
16963;SDS011;8598;50.508;10.436;2022-10-01T12:27:57;5.67;;;5.07;;
16963;SDS011;8598;50.508;10.436;2022-10-01T12:30:30;6.17;;;3.20;;
16963;SDS011;8598;50.508;10.436;2022-10-01T12:33:05;3.33;;;2.77;;
16963;SDS011;8598;50.508;10.436;2022-10-01T12:35:58;2.97;;;2.77;;
16963;SDS011;8598;50.508;10.436;2022-10-01T12:38:39;3.40;;;2.30;;
16963;SDS011;8598;50.508;10.436;2022-10-01T12:41:18;4.67;;;4.17;;
16963;SDS011;8598;50.508;10.436;2022-10-01T12:43:59;2.57;;;2.33;;
16963;SDS011;8598;50.508;10.436;2022-10-01T12:46:39;2.50;;;2.30;;
16963;SDS011;8598;50.508;10.436;2022-10-01T12:49:14;2.67;;;2.30;;
16963;SDS011;8598;50.508;10.436;2022-10-01T12:51:52;3.77;;;2.07;;
16963;SDS011;8598;50.508;10.436;2022-10-01T12:57:31;3.10;;;2.80;;
16963;SDS011;8598;50.508;10.436;2022-10-01T13:00:11;2.90;;;2.70;;
16963;SDS011;8598;50.508;10.436;2022-10-01T13:02:49;4.20;;;3.63;;
16963;SDS011;8598;50.508;10.436;2022-10-01T13:05:41;10.73;;;5.47;;
16963;SDS011;8598;50.508;10.436;2022-10-01T13:08:24;16.50;;;12.37;;
16963;SDS011;8598;50.508;10.436;2022-10-01T13:11:05;9.23;;;7.17;;
16963;SDS011;8598;50.508;10.436;2022-10-01T13:13:44;8.17;;;3.83;;
16963;SDS011;8598;50.508;10.436;2022-10-01T13:16:15;3.60;;;3.00;;
16963;SDS011;8598;50.508;10.436;2022-10-01T13:18:52;5.57;;;3.33;;
16963;SDS011;8598;50.508;10.436;2022-10-01T13:21:26;7.40;;;4.50;;
16963;SDS011;8598;50.508;10.436;2022-10-01T13:24:01;5.93;;;4.10;;
16963;SDS011;8598;50.508;10.436;2022-10-01T13:26:36;4.50;;;3.33;;
16963;SDS011;8598;50.508;10.436;2022-10-01T13:29:10;6.37;;;3.60;;
16963;SDS011;8598;50.508;10.436;2022-10-01T13:31:54;9.83;;;5.93;;
16963;SDS011;8598;50.508;10.436;2022-10-01T13:34:36;9.33;;;5.93;;
16963;SDS011;8598;50.508;10.436;2022-10-01T13:37:14;16.50;;;8.87;;
16963;SDS011;8598;50.508;10.436;2022-10-01T13:39:42;19.17;;;9.50;;
16963;SDS011;8598;50.508;10.436;2022-10-01T13:42:17;22.37;;;13.27;;
16963;SDS011;8598;50.508;10.436;2022-10-01T13:44:52;10.17;;;6.00;;
16963;SDS011;8598;50.508;10.436;2022-10-01T13:47:20;5.00;;;3.77;;
16963;SDS011;8598;50.508;10.436;2022-10-01T13:49:55;22.70;;;12.23;;
16963;SDS011;8598;50.508;10.436;2022-10-01T13:52:24;21.87;;;11.13;;
16963;SDS011;8598;50.508;10.436;2022-10-01T13:54:52;22.10;;;9.93;;
16963;SDS011;8598;50.508;10.436;2022-10-01T13:57:29;18.47;;;10.90;;
16963;SDS011;8598;50.508;10.436;2022-10-01T13:59:59;8.57;;;6.73;;
16963;SDS011;8598;50.508;10.436;2022-10-01T14:02:30;6.57;;;4.77;;
16963;SDS011;8598;50.508;10.436;2022-10-01T14:07:55;12.07;;;7.10;;
16963;SDS011;8598;50.508;10.436;2022-10-01T14:10:30;5.77;;;3.93;;
16963;SDS011;8598;50.508;10.436;2022-10-01T14:13:22;4.23;;;3.50;;
16963;SDS011;8598;50.508;10.436;2022-10-01T14:16:07;4.50;;;3.70;;
16963;SDS011;8598;50.508;10.436;2022-10-01T14:18:38;7.37;;;5.00;;
16963;SDS011;8598;50.508;10.436;2022-10-01T14:21:11;4.83;;;3.67;;
16963;SDS011;8598;50.508;10.436;2022-10-01T14:23:49;6.27;;;4.47;;
16963;SDS011;8598;50.508;10.436;2022-10-01T14:26:22;7.07;;;5.53;;
16963;SDS011;8598;50.508;10.436;2022-10-01T14:29:00;6.07;;;3.70;;
16963;SDS011;8598;50.508;10.436;2022-10-01T14:31:39;3.07;;;2.77;;
16963;SDS011;8598;50.508;10.436;2022-10-01T14:37:07;5.67;;;4.73;;
16963;SDS011;8598;50.508;10.436;2022-10-01T14:39:38;5.27;;;4.40;;
16963;SDS011;8598;50.508;10.436;2022-10-01T14:42:06;6.83;;;4.70;;
16963;SDS011;8598;50.508;10.436;2022-10-01T14:44:37;4.23;;;3.47;;
16963;SDS011;8598;50.508;10.436;2022-10-01T14:47:12;5.33;;;4.27;;
16963;SDS011;8598;50.508;10.436;2022-10-01T14:49:43;4.40;;;3.37;;
16963;SDS011;8598;50.508;10.436;2022-10-01T14:52:15;7.13;;;5.43;;
16963;SDS011;8598;50.508;10.436;2022-10-01T14:54:45;4.00;;;3.57;;
16963;SDS011;8598;50.508;10.436;2022-10-01T14:57:17;4.70;;;4.13;;
16963;SDS011;8598;50.508;10.436;2022-10-01T14:59:52;4.43;;;3.37;;
16963;SDS011;8598;50.508;10.436;2022-10-01T15:02:19;3.13;;;2.83;;
16963;SDS011;8598;50.508;10.436;2022-10-01T15:04:47;14.27;;;6.60;;
16963;SDS011;8598;50.508;10.436;2022-10-01T15:07:16;14.03;;;7.23;;
16963;SDS011;8598;50.508;10.436;2022-10-01T15:09:43;11.17;;;6.67;;
16963;SDS011;8598;50.508;10.436;2022-10-01T15:12:11;14.00;;;8.13;;
16963;SDS011;8598;50.508;10.436;2022-10-01T15:14:39;9.17;;;5.57;;
16963;SDS011;8598;50.508;10.436;2022-10-01T15:17:11;6.80;;;3.73;;